F/V Armandeche — FGLQ — position and weather

sailwx.info

Track history (hours):
 
Tides and Currents Weather Stations Pressure Air Temp Water Temp Dewpoint Dewpoint Depression Visibility Wind Speed Wind Dir Waves Ship Positions

F/V Armandeche

Last reported at 2018-Apr-24 16:31 UTC. Time now 2018-Apr-24 16:42 UTC.
Position N 46°25' W 001°59'.

Length 18 m.

Type: Fishing. MMSI: 228184000.

Date/timePositionNaut miles runAvg speedWind from/ knotsBaromVisibWave heightAir tempDewpointWater temp
2018-Apr-24 16:31N 46°25' W 001°59'5 9.9
2018-Apr-24 16:00N 46°23' W 002°06'6 9.7
2018-Apr-24 15:24N 46°21' W 002°14'11 3.0
2018-Apr-24 11:38N 46°21' W 002°30'7 3.1
2018-Apr-24 09:22N 46°16' W 002°22'3 4.7
2018-Apr-24 08:39N 46°17' W 002°27'0 1.6
2018-Apr-24 08:22N 46°16' W 002°26'1 2.2
2018-Apr-24 07:55N 46°16' W 002°25'2 2.4
2018-Apr-24 07:09N 46°16' W 002°22'3 6.9
2018-Apr-24 06:46N 46°14' W 002°22'8 0.3
2018-Apr-23 02:57N 46°16' W 002°33'0 0.0
2018-Apr-23 01:49N 46°16' W 002°33'0 0.0
2018-Apr-23 01:26N 46°16' W 002°33'0 0.0
2018-Apr-23 00:36N 46°16' W 002°33'0 0.0
2018-Apr-23 00:28N 46°16' W 002°33'0 0.0
2018-Apr-23 00:01N 46°16' W 002°33'0 0.0
2018-Apr-22 23:31N 46°16' W 002°33'0 0.0
2018-Apr-22 22:58N 46°16' W 002°33'0 0.0
2018-Apr-22 22:30N 46°16' W 002°33'0 0.1
2018-Apr-22 21:56N 46°16' W 002°33'0 0.0
2018-Apr-22 13:26N 46°17' W 002°33'4 2.9
2018-Apr-22 12:08N 46°15' W 002°38'13 8.7
2018-Apr-22 10:41N 46°06' W 002°25'12 2.4
2018-Apr-22 05:45N 46°18' W 002°26'2 7.8
2018-Apr-22 05:30N 46°20' W 002°27'0 0.5
2018-Apr-22 04:58N 46°20' W 002°28'1 2.6
2018-Apr-22 04:29N 46°19' W 002°27'17 3.6
2018-Apr-21 23:51N 46°24' W 002°04'410.6
2018-Apr-21 23:30N 46°26' W 001°59'510.5
2018-Apr-21 23:00N 46°27' W 001°52'4 7.8
2018-Apr-21 22:30N 46°30' W 001°48'0 0.5
2018-Apr-21 22:00N 46°30' W 001°47'0 0.0
2018-Apr-20 21:16N 46°30' W 001°47'1 3.3
2018-Apr-20 21:00N 46°29' W 001°47'5 9.3
2018-Apr-20 20:30N 46°26' W 001°53'5 9.8
2018-Apr-20 20:01N 46°24' W 001°59'5 9.8
2018-Apr-20 19:31N 46°21' W 002°05'12 1.4
2018-Apr-20 10:47N 46°29' W 002°18'15 5.5
2018-Apr-20 08:08N 46°44' W 002°21'0 0.0
2018-Apr-20 07:44N 46°44' W 002°21'1 0.4
2018-Apr-20 05:29N 46°44' W 002°19'5 9.7
2018-Apr-20 04:59N 46°41' W 002°13'5 9.8
2018-Apr-20 04:30N 46°38' W 002°08'5 9.8
2018-Apr-20 04:00N 46°35' W 002°03'5 9.9
2018-Apr-20 03:30N 46°32' W 001°57'5 9.9
2018-Apr-20 03:00N 46°29' W 001°51'3 5.2
2018-Apr-20 02:31N 46°30' W 001°48'0 0.9
2018-Apr-20 02:00N 46°30' W 001°47'0 0.0
2018-Apr-20 01:31N 46°30' W 001°47'0 0.0
2018-Apr-20 01:00N 46°30' W 001°47'0 0.0
2018-Apr-20 00:31N 46°30' W 001°47'0 0.0
2018-Apr-20 00:01N 46°30' W 001°47'0 0.0
2018-Apr-19 23:31N 46°30' W 001°47'0 0.0
2018-Apr-19 23:00N 46°30' W 001°47'0 0.0
2018-Apr-19 22:30N 46°30' W 001°47'0 0.0
2018-Apr-19 22:01N 46°30' W 001°47'0 0.1
2018-Apr-19 21:31N 46°30' W 001°47'0 0.7
2018-Apr-19 21:00N 46°30' W 001°48'4 7.5
2018-Apr-19 20:30N 46°27' W 001°51'5 9.6
2018-Apr-19 20:00N 46°25' W 001°58'5 9.8
2018-Apr-19 19:30N 46°23' W 002°04'5 9.8
2018-Apr-19 19:00N 46°21' W 002°10'510.0
2018-Apr-19 18:28N 46°18' W 002°18'610.1
2018-Apr-19 17:54N 46°16' W 002°25'2 2.3
2018-Apr-19 16:58N 46°15' W 002°22'1 1.2
2018-Apr-19 16:29N 46°15' W 002°23'1 1.5
2018-Apr-19 16:00N 46°15' W 002°24'7 0.8
2018-Apr-19 07:36N 46°17' W 002°15'0 1.5
2018-Apr-19 07:30N 46°17' W 002°15'1 1.3
2018-Apr-19 06:58N 46°16' W 002°14'1 1.4
2018-Apr-19 06:27N 46°17' W 002°15'2 2.0
2018-Apr-19 05:28N 46°19' W 002°17'0 0.0
2018-Apr-19 00:43N 46°19' W 002°17'0 0.2
2018-Apr-19 00:27N 46°19' W 002°17'0 0.2
2018-Apr-18 23:21N 46°19' W 002°17'0 0.1
2018-Apr-18 21:36N 46°18' W 002°17'0 0.1
2018-Apr-18 21:27N 46°18' W 002°17'0 0.1
2018-Apr-18 21:00N 46°18' W 002°17'0 0.1
2018-Apr-18 20:30N 46°18' W 002°17'0 0.1
2018-Apr-18 19:45N 46°18' W 002°17'0 0.2
2018-Apr-18 19:30N 46°18' W 002°17'1 1.8
2018-Apr-18 18:41N 46°19' W 002°18'1 7.0
2018-Apr-18 18:30N 46°18' W 002°17'3 4.7
2018-Apr-18 17:58N 46°16' W 002°18'3 0.9
2018-Apr-18 14:38N 46°15' W 002°22'2 9.8
2018-Apr-18 14:28N 46°17' W 002°24'5 4.8
2018-Apr-18 13:25N 46°20' W 002°29'4 3.0
2018-Apr-18 12:06N 46°17' W 002°25'0 0.3
2018-Apr-18 11:50N 46°17' W 002°25'0 0.1
2018-Apr-18 11:28N 46°17' W 002°25'4 1.9
2018-Apr-18 09:08N 46°18' W 002°19'2 9.9
2018-Apr-18 08:58N 46°18' W 002°16'2 3.4
2018-Apr-18 08:23N 46°16' W 002°15'1 1.5
2018-Apr-18 07:58N 46°16' W 002°14'0 0.5
2018-Apr-18 07:30N 46°16' W 002°15'0 0.4
2018-Apr-18 07:00N 46°17' W 002°14'0 0.9
2018-Apr-18 06:30N 46°16' W 002°14'1 1.5
2018-Apr-18 06:00N 46°16' W 002°15'0 0.0
2018-Apr-18 05:22N 46°16' W 002°15'0 0.0
2018-Apr-18 05:00N 46°16' W 002°15'0 0.3
2018-Apr-18 04:22N 46°16' W 002°15'0 0.2
2018-Apr-18 03:42N 46°16' W 002°14'0 0.1
2018-Apr-18 02:36N 46°16' W 002°14'0 0.1
2018-Apr-18 02:30N 46°16' W 002°14'0 0.1
2018-Apr-18 01:49N 46°16' W 002°14'0 0.1
2018-Apr-18 00:05N 46°16' W 002°15'0 0.1
2018-Apr-18 00:00N 46°16' W 002°15'0 0.2
2018-Apr-17 22:34N 46°16' W 002°15'0 0.1
2018-Apr-17 19:41N 46°16' W 002°15'0 2.1
2018-Apr-17 19:30N 46°16' W 002°14'1 1.9
2018-Apr-17 18:59N 46°16' W 002°16'5 9.4
2018-Apr-17 18:29N 46°15' W 002°23'1 1.2
2018-Apr-17 17:53N 46°15' W 002°22'0 1.1
2018-Apr-17 17:27N 46°15' W 002°22'1 1.8
2018-Apr-17 17:00N 46°15' W 002°21'2 2.4
2018-Apr-17 16:12N 46°15' W 002°24'1 2.7
2018-Apr-17 15:54N 46°15' W 002°25'3 6.3
2018-Apr-17 15:30N 46°13' W 002°24'3 1.0
2018-Apr-17 12:55N 46°14' W 002°21'0 0.9
2018-Apr-17 12:25N 46°14' W 002°22'1 1.7
2018-Apr-17 11:49N 46°14' W 002°23'1 1.8
2018-Apr-17 11:28N 46°14' W 002°24'2 0.7
2018-Apr-17 07:58N 46°15' W 002°21'0 1.0
2018-Apr-17 07:30N 46°14' W 002°21'1 2.3
2018-Apr-17 06:58N 46°14' W 002°23'1 1.5
2018-Apr-17 06:31N 46°14' W 002°24'1 1.6
2018-Apr-17 06:00N 46°14' W 002°23'1 1.9
2018-Apr-17 05:30N 46°14' W 002°21'0 0.7
2018-Apr-17 05:00N 46°14' W 002°21'3 5.2
2018-Apr-17 04:24N 46°16' W 002°17'3 4.0
2018-Apr-17 03:42N 46°17' W 002°14'2 7.0
2018-Apr-17 03:28N 46°18' W 002°11'9 8.4
2018-Apr-17 02:27N 46°23' W 002°01'4 8.3
2018-Apr-17 01:58N 46°25' W 001°56'4 8.3
2018-Apr-17 01:31N 46°27' W 001°51'4 7.5
2018-Apr-17 01:00N 46°29' W 001°47'1 1.2
2018-Apr-17 00:30N 46°30' W 001°47'0 0.0
2018-Apr-15 14:31N 46°30' W 001°47'0 0.0
2018-Apr-15 14:30N 46°30' W 001°47'0 0.4
2018-Apr-15 14:00N 46°30' W 001°47'0 0.5
2018-Apr-15 13:31N 46°30' W 001°48'4 8.4
2018-Apr-15 13:00N 46°27' W 001°52'611.0
2018-Apr-15 12:30N 46°25' W 001°59'611.1
2018-Apr-15 12:00N 46°22' W 002°07'14 1.3
2018-Apr-15 01:36N 46°16' W 002°24'0 0.4
2018-Apr-15 01:27N 46°16' W 002°24'0 0.1
2018-Apr-15 00:57N 46°16' W 002°24'0 0.0
2018-Apr-15 00:18N 46°16' W 002°24'0 0.0
2018-Apr-14 23:57N 46°16' W 002°24'0 0.0
2018-Apr-14 23:17N 46°16' W 002°24'0 0.0
2018-Apr-14 22:55N 46°16' W 002°24'  
Track history (hours):
 
Tides and Currents Weather Stations Pressure Air Temp Water Temp Dewpoint Dewpoint Depression Visibility Wind Speed Wind Dir Waves Ship Positions

F/V Armandeche

Last reported at 2018-Apr-24 16:31 UTC. Time now 2018-Apr-24 16:42 UTC.
Position N 46°25' W 001°59'.

Length 18 m.

Type: Fishing. MMSI: 228184000.

Date/timePositionNaut miles runAvg speedWind from/ knotsBaromVisibWave heightAir tempDewpointWater temp
2018-Apr-24 16:31N 46°25' W 001°59'5 9.9
2018-Apr-24 16:00N 46°23' W 002°06'6 9.7
2018-Apr-24 15:24N 46°21' W 002°14'11 3.0
2018-Apr-24 11:38N 46°21' W 002°30'7 3.1
2018-Apr-24 09:22N 46°16' W 002°22'3 4.7
2018-Apr-24 08:39N 46°17' W 002°27'0 1.6
2018-Apr-24 08:22N 46°16' W 002°26'1 2.2
2018-Apr-24 07:55N 46°16' W 002°25'2 2.4
2018-Apr-24 07:09N 46°16' W 002°22'3 6.9
2018-Apr-24 06:46N 46°14' W 002°22'8 0.3
2018-Apr-23 02:57N 46°16' W 002°33'0 0.0
2018-Apr-23 01:49N 46°16' W 002°33'0 0.0
2018-Apr-23 01:26N 46°16' W 002°33'0 0.0
2018-Apr-23 00:36N 46°16' W 002°33'0 0.0
2018-Apr-23 00:28N 46°16' W 002°33'0 0.0
2018-Apr-23 00:01N 46°16' W 002°33'0 0.0
2018-Apr-22 23:31N 46°16' W 002°33'0 0.0
2018-Apr-22 22:58N 46°16' W 002°33'0 0.0
2018-Apr-22 22:30N 46°16' W 002°33'0 0.1
2018-Apr-22 21:56N 46°16' W 002°33'0 0.0
2018-Apr-22 13:26N 46°17' W 002°33'4 2.9
2018-Apr-22 12:08N 46°15' W 002°38'13 8.7
2018-Apr-22 10:41N 46°06' W 002°25'12 2.4
2018-Apr-22 05:45N 46°18' W 002°26'2 7.8
2018-Apr-22 05:30N 46°20' W 002°27'0 0.5
2018-Apr-22 04:58N 46°20' W 002°28'1 2.6
2018-Apr-22 04:29N 46°19' W 002°27'17 3.6
2018-Apr-21 23:51N 46°24' W 002°04'410.6
2018-Apr-21 23:30N 46°26' W 001°59'510.5
2018-Apr-21 23:00N 46°27' W 001°52'4 7.8
2018-Apr-21 22:30N 46°30' W 001°48'0 0.5
2018-Apr-21 22:00N 46°30' W 001°47'0 0.0
2018-Apr-20 21:16N 46°30' W 001°47'1 3.3
2018-Apr-20 21:00N 46°29' W 001°47'5 9.3
2018-Apr-20 20:30N 46°26' W 001°53'5 9.8
2018-Apr-20 20:01N 46°24' W 001°59'5 9.8
2018-Apr-20 19:31N 46°21' W 002°05'12 1.4
2018-Apr-20 10:47N 46°29' W 002°18'15 5.5
2018-Apr-20 08:08N 46°44' W 002°21'0 0.0
2018-Apr-20 07:44N 46°44' W 002°21'1 0.4
2018-Apr-20 05:29N 46°44' W 002°19'5 9.7
2018-Apr-20 04:59N 46°41' W 002°13'5 9.8
2018-Apr-20 04:30N 46°38' W 002°08'5 9.8
2018-Apr-20 04:00N 46°35' W 002°03'5 9.9
2018-Apr-20 03:30N 46°32' W 001°57'5 9.9
2018-Apr-20 03:00N 46°29' W 001°51'3 5.2
2018-Apr-20 02:31N 46°30' W 001°48'0 0.9
2018-Apr-20 02:00N 46°30' W 001°47'0 0.0
2018-Apr-20 01:31N 46°30' W 001°47'0 0.0
2018-Apr-20 01:00N 46°30' W 001°47'0 0.0
2018-Apr-20 00:31N 46°30' W 001°47'0 0.0
2018-Apr-20 00:01N 46°30' W 001°47'0 0.0
2018-Apr-19 23:31N 46°30' W 001°47'0 0.0
2018-Apr-19 23:00N 46°30' W 001°47'0 0.0
2018-Apr-19 22:30N 46°30' W 001°47'0 0.0
2018-Apr-19 22:01N 46°30' W 001°47'0 0.1
2018-Apr-19 21:31N 46°30' W 001°47'0 0.7
2018-Apr-19 21:00N 46°30' W 001°48'4 7.5
2018-Apr-19 20:30N 46°27' W 001°51'5 9.6
2018-Apr-19 20:00N 46°25' W 001°58'5 9.8
2018-Apr-19 19:30N 46°23' W 002°04'5 9.8
2018-Apr-19 19:00N 46°21' W 002°10'510.0
2018-Apr-19 18:28N 46°18' W 002°18'610.1
2018-Apr-19 17:54N 46°16' W 002°25'2 2.3
2018-Apr-19 16:58N 46°15' W 002°22'1 1.2
2018-Apr-19 16:29N 46°15' W 002°23'1 1.5
2018-Apr-19 16:00N 46°15' W 002°24'7 0.8
2018-Apr-19 07:36N 46°17' W 002°15'0 1.5
2018-Apr-19 07:30N 46°17' W 002°15'1 1.3
2018-Apr-19 06:58N 46°16' W 002°14'1 1.4
2018-Apr-19 06:27N 46°17' W 002°15'2 2.0
2018-Apr-19 05:28N 46°19' W 002°17'0 0.0
2018-Apr-19 00:43N 46°19' W 002°17'0 0.2
2018-Apr-19 00:27N 46°19' W 002°17'0 0.2
2018-Apr-18 23:21N 46°19' W 002°17'0 0.1
2018-Apr-18 21:36N 46°18' W 002°17'0 0.1
2018-Apr-18 21:27N 46°18' W 002°17'0 0.1
2018-Apr-18 21:00N 46°18' W 002°17'0 0.1
2018-Apr-18 20:30N 46°18' W 002°17'0 0.1
2018-Apr-18 19:45N 46°18' W 002°17'0 0.2
2018-Apr-18 19:30N 46°18' W 002°17'1 1.8
2018-Apr-18 18:41N 46°19' W 002°18'1 7.0
2018-Apr-18 18:30N 46°18' W 002°17'3 4.7
2018-Apr-18 17:58N 46°16' W 002°18'3 0.9
2018-Apr-18 14:38N 46°15' W 002°22'2 9.8
2018-Apr-18 14:28N 46°17' W 002°24'5 4.8
2018-Apr-18 13:25N 46°20' W 002°29'4 3.0
2018-Apr-18 12:06N 46°17' W 002°25'0 0.3
2018-Apr-18 11:50N 46°17' W 002°25'0 0.1
2018-Apr-18 11:28N 46°17' W 002°25'4 1.9
2018-Apr-18 09:08N 46°18' W 002°19'2 9.9
2018-Apr-18 08:58N 46°18' W 002°16'2 3.4
2018-Apr-18 08:23N 46°16' W 002°15'1 1.5
2018-Apr-18 07:58N 46°16' W 002°14'0 0.5
2018-Apr-18 07:30N 46°16' W 002°15'0 0.4
2018-Apr-18 07:00N 46°17' W 002°14'0 0.9
2018-Apr-18 06:30N 46°16' W 002°14'1 1.5
2018-Apr-18 06:00N 46°16' W 002°15'0 0.0
2018-Apr-18 05:22N 46°16' W 002°15'0 0.0
2018-Apr-18 05:00N 46°16' W 002°15'0 0.3
2018-Apr-18 04:22N 46°16' W 002°15'0 0.2
2018-Apr-18 03:42N 46°16' W 002°14'0 0.1
2018-Apr-18 02:36N 46°16' W 002°14'0 0.1
2018-Apr-18 02:30N 46°16' W 002°14'0 0.1
2018-Apr-18 01:49N 46°16' W 002°14'0 0.1
2018-Apr-18 00:05N 46°16' W 002°15'0 0.1
2018-Apr-18 00:00N 46°16' W 002°15'0 0.2
2018-Apr-17 22:34N 46°16' W 002°15'0 0.1
2018-Apr-17 19:41N 46°16' W 002°15'0 2.1
2018-Apr-17 19:30N 46°16' W 002°14'1 1.9
2018-Apr-17 18:59N 46°16' W 002°16'5 9.4
2018-Apr-17 18:29N 46°15' W 002°23'1 1.2
2018-Apr-17 17:53N 46°15' W 002°22'0 1.1
2018-Apr-17 17:27N 46°15' W 002°22'1 1.8
2018-Apr-17 17:00N 46°15' W 002°21'2 2.4
2018-Apr-17 16:12N 46°15' W 002°24'1 2.7
2018-Apr-17 15:54N 46°15' W 002°25'3 6.3
2018-Apr-17 15:30N 46°13' W 002°24'3 1.0
2018-Apr-17 12:55N 46°14' W 002°21'0 0.9
2018-Apr-17 12:25N 46°14' W 002°22'1 1.7
2018-Apr-17 11:49N 46°14' W 002°23'1 1.8
2018-Apr-17 11:28N 46°14' W 002°24'2 0.7
2018-Apr-17 07:58N 46°15' W 002°21'0 1.0
2018-Apr-17 07:30N 46°14' W 002°21'1 2.3
2018-Apr-17 06:58N 46°14' W 002°23'1 1.5
2018-Apr-17 06:31N 46°14' W 002°24'1 1.6
2018-Apr-17 06:00N 46°14' W 002°23'1 1.9
2018-Apr-17 05:30N 46°14' W 002°21'0 0.7
2018-Apr-17 05:00N 46°14' W 002°21'3 5.2
2018-Apr-17 04:24N 46°16' W 002°17'3 4.0
2018-Apr-17 03:42N 46°17' W 002°14'2 7.0
2018-Apr-17 03:28N 46°18' W 002°11'9 8.4
2018-Apr-17 02:27N 46°23' W 002°01'4 8.3
2018-Apr-17 01:58N 46°25' W 001°56'4 8.3
2018-Apr-17 01:31N 46°27' W 001°51'4 7.5
2018-Apr-17 01:00N 46°29' W 001°47'1 1.2
2018-Apr-17 00:30N 46°30' W 001°47'0 0.0
2018-Apr-15 14:31N 46°30' W 001°47'0 0.0
2018-Apr-15 14:30N 46°30' W 001°47'0 0.4
2018-Apr-15 14:00N 46°30' W 001°47'0 0.5
2018-Apr-15 13:31N 46°30' W 001°48'4 8.4
2018-Apr-15 13:00N 46°27' W 001°52'611.0
2018-Apr-15 12:30N 46°25' W 001°59'611.1
2018-Apr-15 12:00N 46°22' W 002°07'14 1.3
2018-Apr-15 01:36N 46°16' W 002°24'0 0.4
2018-Apr-15 01:27N 46°16' W 002°24'0 0.1
2018-Apr-15 00:57N 46°16' W 002°24'0 0.0
2018-Apr-15 00:18N 46°16' W 002°24'0 0.0
2018-Apr-14 23:57N 46°16' W 002°24'0 0.0
2018-Apr-14 23:17N 46°16' W 002°24'0 0.0
2018-Apr-14 22:55N 46°16' W 002°24'  

Dump ship's entire track history